Iola, Wisconsin
Current Conditions -  °F | °C
As of 11:35 AM on Thursday 30 Oct 2014 (Local Time) from KPCZ Reporting Station
Scattered Clouds Scattered Clouds  
Wind Chill: 45°   Ceiling: Unl
Heat Index: 48°   Visibility: 10mi
Dew Point: 36°   Wind: 6mph
Humidity: 62%   Direction: 270°W
Pressure: 30.09"   Gusts: NA
Location:  44.51°N, 89.13°W
Report Text: KPCZ 301635Z AUTO 27005KT 10SM SCT100 09/02 A3009 RMK AO2 T00890020
Loading
Personal Weather Stations






























Interactive Weather Map
Tropical Storm Tracking
New forecast layout! Learn more

10-Day Weather Forecast

Advertisements
Track Severe Weather on mobile